createdAt,value
2019-01-23T00:00:48.355Z,89.66
2019-01-23T00:01:48.345Z,90.65
2019-01-23T00:02:48.346Z,90.65
2019-01-23T00:03:48.323Z,90.12
2019-01-23T00:04:48.317Z,90.19
2019-01-23T00:05:48.309Z,90.12
2019-01-23T00:06:48.291Z,89.98
2019-01-23T00:07:48.295Z,90.19
2019-01-23T00:08:48.273Z,90.19
2019-01-23T00:09:48.262Z,89.66
2019-01-23T00:10:48.264Z,89.76
2019-01-23T00:11:48.251Z,89.98
2019-01-23T00:12:48.239Z,89.87
2019-01-23T00:13:48.221Z,89.66
2019-01-23T00:14:48.213Z,90.08
2019-01-23T00:15:48.203Z,90.30
2019-01-23T00:16:48.198Z,90.08
2019-01-23T00:17:48.192Z,90.01
2019-01-23T00:18:48.175Z,90.08
2019-01-23T00:19:48.166Z,90.08
2019-01-23T00:20:48.148Z,90.19
2019-01-23T00:21:48.166Z,90.30
2019-01-23T00:22:48.140Z,89.98
2019-01-23T00:23:48.122Z,89.87
2019-01-23T00:24:48.109Z,89.34
2019-01-23T00:25:48.122Z,90.50
2019-01-23T00:26:48.089Z,89.55
2019-01-23T00:27:48.088Z,89.76
2019-01-23T00:28:48.069Z,89.87
2019-01-23T00:29:48.056Z,90.40
2019-01-23T00:30:48.046Z,90.40
2019-01-23T00:31:48.050Z,90.40
2019-01-23T00:32:48.052Z,90.61
2019-01-23T00:33:48.017Z,89.87
2019-01-23T00:34:48.008Z,89.76
2019-01-23T00:35:47.999Z,89.03
2019-01-23T00:36:47.988Z,89.55
2019-01-23T00:37:47.994Z,90.08
2019-01-23T00:38:47.971Z,89.98
2019-01-23T00:39:47.954Z,89.45
2019-01-23T00:40:47.944Z,90.61
2019-01-23T00:41:47.940Z,90.08
2019-01-23T00:42:47.951Z,89.98
2019-01-23T00:43:47.918Z,90.19
2019-01-23T00:44:47.909Z,89.76
2019-01-23T00:45:47.893Z,89.76
2019-01-23T00:46:47.884Z,90.08
2019-01-23T00:47:47.888Z,89.55
2019-01-23T00:48:47.872Z,88.92
2019-01-23T00:49:47.855Z,89.03
2019-01-23T00:50:47.850Z,89.34
2019-01-23T00:51:47.837Z,89.55
2019-01-23T00:52:47.833Z,89.98
2019-01-23T00:53:47.823Z,90.04
2019-01-23T00:54:47.802Z,88.77
2019-01-23T00:55:47.803Z,88.60
2019-01-23T00:56:47.781Z,89.45
2019-01-23T00:57:47.785Z,89.98
2019-01-23T00:58:49.313Z,90.08
2019-01-23T00:59:47.754Z,90.08
2019-01-23T01:00:47.744Z,89.76
2019-01-23T01:01:47.730Z,89.66
2019-01-23T01:02:47.735Z,89.98
2019-01-23T01:03:47.711Z,89.76
2019-01-23T01:04:47.702Z,89.87
2019-01-23T01:05:47.690Z,89.03
2019-01-23T01:06:48.405Z,89.13
2019-01-23T01:07:47.844Z,89.13
2019-01-23T01:08:47.681Z,88.71
2019-01-23T01:09:47.648Z,88.81
2019-01-23T01:10:47.644Z,88.81
2019-01-23T01:11:47.628Z,88.88
2019-01-23T01:12:47.630Z,88.71
2019-01-23T01:13:47.608Z,89.03
2019-01-23T01:14:47.623Z,89.03
2019-01-23T01:15:47.591Z,89.23
2019-01-23T01:16:47.578Z,89.13
2019-01-23T01:17:47.577Z,89.13
2019-01-23T01:18:47.575Z,89.76
2019-01-23T01:19:47.571Z,89.23
2019-01-23T01:20:47.538Z,88.92
2019-01-23T01:21:47.526Z,89.13
2019-01-23T01:22:47.525Z,89.03
2019-01-23T01:23:47.506Z,89.87
2019-01-23T01:24:47.519Z,89.98
2019-01-23T01:25:47.484Z,89.23
2019-01-23T01:26:47.476Z,88.92
2019-01-23T01:27:47.847Z,88.49
2019-01-23T01:28:47.464Z,88.60
2019-01-23T01:29:47.442Z,88.60
2019-01-23T01:30:47.436Z,88.49
2019-01-23T01:31:47.426Z,89.03
2019-01-23T01:32:47.447Z,89.03
2019-01-23T01:33:47.402Z,89.23
2019-01-23T01:34:47.392Z,88.81
2019-01-23T01:35:47.384Z,89.03
2019-01-23T01:36:47.371Z,88.92
2019-01-23T01:37:47.363Z,88.60
2019-01-23T01:38:47.364Z,88.88
2019-01-23T01:39:47.342Z,88.45
2019-01-23T01:40:47.331Z,88.56
2019-01-23T01:41:47.324Z,88.03
2019-01-23T01:42:47.310Z,88.49
2019-01-23T01:43:47.311Z,88.07
2019-01-23T01:44:47.289Z,88.60
2019-01-23T01:45:47.281Z,88.45
2019-01-23T01:46:47.272Z,88.03
2019-01-23T01:47:47.260Z,88.71
2019-01-23T01:48:47.265Z,88.67
2019-01-23T01:49:47.249Z,88.88
2019-01-23T01:50:47.227Z,88.13
2019-01-23T01:51:47.219Z,88.24
2019-01-23T01:52:47.211Z,88.03
2019-01-23T01:53:47.209Z,87.93
2019-01-23T01:54:47.193Z,87.82
2019-01-23T01:55:47.182Z,88.13
2019-01-23T01:56:47.167Z,87.93
2019-01-23T01:57:47.159Z,88.13
2019-01-23T01:58:47.164Z,88.28
2019-01-23T01:59:47.143Z,88.28
2019-01-23T02:00:47.127Z,88.45
2019-01-23T02:01:47.119Z,88.13
2019-01-23T02:02:47.109Z,88.56
2019-01-23T02:03:47.106Z,88.35
2019-01-23T02:04:47.088Z,88.77
2019-01-23T02:05:47.079Z,88.13
2019-01-23T02:06:47.064Z,88.07
2019-01-23T02:07:47.068Z,87.96
2019-01-23T02:08:47.055Z,87.86
2019-01-23T02:09:47.034Z,88.13
2019-01-23T02:10:47.030Z,88.28
2019-01-23T02:11:47.018Z,87.96
2019-01-23T02:12:47.004Z,88.28
2019-01-23T02:13:47.014Z,88.39
2019-01-23T02:14:46.983Z,88.71
2019-01-23T02:15:46.974Z,88.49
2019-01-23T02:16:46.966Z,88.56
2019-01-23T02:17:46.969Z,88.13
2019-01-23T02:18:46.953Z,88.28
2019-01-23T02:19:46.934Z,87.71
2019-01-23T02:20:46.930Z,87.93
2019-01-23T02:21:46.912Z,88.03
2019-01-23T02:22:46.902Z,87.50
2019-01-23T02:23:46.905Z,88.07
2019-01-23T02:24:46.882Z,87.93
2019-01-23T02:25:46.881Z,88.49
2019-01-23T02:26:46.862Z,88.28
2019-01-23T02:27:46.853Z,88.18
2019-01-23T02:28:46.851Z,88.60
2019-01-23T02:29:46.840Z,88.56
2019-01-23T02:30:46.821Z,88.71
2019-01-23T02:31:46.815Z,88.49
2019-01-23T02:32:46.802Z,88.49
2019-01-23T02:33:46.800Z,88.49
2019-01-23T02:34:46.787Z,88.49
2019-01-23T02:35:46.775Z,88.39
2019-01-23T02:36:46.761Z,88.60
2019-01-23T02:37:46.756Z,88.71
2019-01-23T02:38:46.750Z,88.71
2019-01-23T02:39:46.732Z,89.13
2019-01-23T02:40:46.724Z,88.60
2019-01-23T02:41:46.709Z,88.60
2019-01-23T02:42:46.710Z,88.39
2019-01-23T02:43:46.704Z,89.03
2019-01-23T02:44:46.680Z,88.71
2019-01-23T02:45:46.672Z,88.71
2019-01-23T02:46:46.660Z,88.81
2019-01-23T02:47:46.653Z,88.71
2019-01-23T02:48:46.650Z,89.23
2019-01-23T02:49:46.643Z,88.71
2019-01-23T02:50:46.618Z,88.28
2019-01-23T02:51:46.610Z,89.03
2019-01-23T02:52:46.605Z,88.92
2019-01-23T02:53:46.607Z,88.71
2019-01-23T02:54:46.585Z,88.56
2019-01-23T02:55:46.570Z,88.71
2019-01-23T02:56:46.555Z,88.49
2019-01-23T02:57:46.554Z,88.60
2019-01-23T02:58:46.548Z,88.13
2019-01-23T02:59:46.529Z,88.24
2019-01-23T03:00:46.547Z,88.18
2019-01-23T03:01:46.516Z,88.18
2019-01-23T03:02:46.512Z,88.67
2019-01-23T03:03:46.514Z,88.71
2019-01-23T03:04:46.487Z,88.81
2019-01-23T03:05:46.476Z,88.49
2019-01-23T03:06:46.456Z,88.60
2019-01-23T03:07:46.449Z,88.28
2019-01-23T03:08:46.449Z,88.60
2019-01-23T03:09:46.424Z,89.13
2019-01-23T03:10:46.417Z,88.81
2019-01-23T03:11:46.403Z,88.92
2019-01-23T03:12:46.396Z,89.03
2019-01-23T03:13:46.403Z,88.49
2019-01-23T03:14:46.378Z,88.92
2019-01-23T03:15:46.364Z,88.71
2019-01-23T03:16:46.372Z,90.08
2019-01-23T03:17:46.346Z,89.98
2019-01-23T03:18:46.431Z,89.76
2019-01-23T03:19:46.334Z,89.87
2019-01-23T03:20:46.318Z,89.72
2019-01-23T03:21:46.303Z,88.98
2019-01-23T03:22:46.297Z,89.09
2019-01-23T03:23:46.298Z,88.24
2019-01-23T03:24:46.275Z,88.77
2019-01-23T03:25:46.264Z,88.35
2019-01-23T03:26:46.275Z,88.88
2019-01-23T03:27:46.246Z,88.67
2019-01-23T03:28:46.243Z,88.56
2019-01-23T03:29:46.224Z,88.88
2019-01-23T03:30:46.222Z,88.35
2019-01-23T03:31:46.207Z,88.56
2019-01-23T03:32:46.206Z,88.13
2019-01-23T03:33:46.196Z,88.56
2019-01-23T03:34:46.171Z,88.03
2019-01-23T03:35:46.167Z,88.07
2019-01-23T03:36:46.155Z,88.18
2019-01-23T03:37:46.177Z,88.92
2019-01-23T03:38:46.152Z,88.49
2019-01-23T03:39:46.131Z,88.81
2019-01-23T03:40:46.111Z,88.49
2019-01-23T03:41:46.101Z,88.81
2019-01-23T03:42:46.101Z,88.60
2019-01-23T03:43:46.087Z,88.71
2019-01-23T03:44:46.067Z,89.03
2019-01-23T03:45:46.057Z,89.13
2019-01-23T03:46:46.051Z,89.03
2019-01-23T03:47:46.038Z,88.92
2019-01-23T03:48:46.058Z,89.23
2019-01-23T03:49:46.024Z,89.98
2019-01-23T03:50:46.020Z,89.98
2019-01-23T03:51:45.996Z,89.87
2019-01-23T03:52:46.004Z,89.87
2019-01-23T03:53:45.993Z,89.13
2019-01-23T03:54:45.971Z,88.39
2019-01-23T03:55:45.972Z,88.81
2019-01-23T03:56:45.947Z,88.92
2019-01-23T03:57:45.937Z,88.67
2019-01-23T03:58:45.935Z,88.60
2019-01-23T03:59:45.914Z,88.71
2019-01-23T04:00:45.907Z,88.45
2019-01-23T04:01:45.896Z,88.45
2019-01-23T04:02:45.887Z,88.60
2019-01-23T04:03:45.886Z,87.96
2019-01-23T04:04:45.868Z,87.86
2019-01-23T04:05:45.864Z,87.86
2019-01-23T04:06:45.882Z,87.86
2019-01-23T04:07:45.833Z,88.39
2019-01-23T04:08:45.847Z,88.53
2019-01-23T04:09:45.814Z,87.96
2019-01-23T04:10:45.803Z,87.79
2019-01-23T04:11:45.790Z,88.11
2019-01-23T04:12:45.783Z,88.43
2019-01-23T04:13:45.788Z,88.49
2019-01-23T04:14:45.764Z,88.11
2019-01-23T04:15:45.762Z,88.11
2019-01-23T04:16:45.741Z,87.90
2019-01-23T04:17:45.733Z,87.58
2019-01-23T04:18:45.922Z,87.54
2019-01-23T04:19:45.724Z,88.39
2019-01-23T04:20:45.704Z,88.71
2019-01-23T04:21:45.690Z,88.07
2019-01-23T04:22:45.681Z,88.07
2019-01-23T04:23:45.682Z,87.43
2019-01-23T04:24:45.675Z,87.43
2019-01-23T04:25:45.657Z,87.12
2019-01-23T04:26:45.645Z,87.05
2019-01-23T04:27:45.634Z,87.16
2019-01-23T04:28:45.621Z,86.84
2019-01-23T04:29:45.624Z,86.94
2019-01-23T04:30:45.605Z,87.26
2019-01-23T04:31:45.591Z,87.79
2019-01-23T04:32:45.587Z,87.58
2019-01-23T04:33:45.569Z,87.05
2019-01-23T04:34:45.576Z,87.30
2019-01-23T04:35:45.549Z,87.09
2019-01-23T04:36:45.540Z,87.73
2019-01-23T04:37:45.544Z,87.62
2019-01-23T04:38:45.518Z,87.51
2019-01-23T04:39:45.524Z,87.90
2019-01-23T04:40:45.501Z,87.79
2019-01-23T04:41:45.495Z,87.79
2019-01-23T04:42:45.480Z,88.21
2019-01-23T04:43:45.469Z,88.21
2019-01-23T04:44:45.467Z,87.37
2019-01-23T04:45:45.464Z,87.23
2019-01-23T04:46:45.438Z,87.05
2019-01-23T04:47:45.437Z,85.99
2019-01-23T04:48:45.424Z,86.52
2019-01-23T04:49:45.418Z,86.31
2019-01-23T04:50:45.397Z,85.57
2019-01-23T04:51:45.407Z,85.68
2019-01-23T04:52:45.376Z,85.29
2019-01-23T04:53:45.374Z,85.29
2019-01-23T04:54:45.366Z,84.76
2019-01-23T04:55:45.347Z,85.61
2019-01-23T04:56:45.335Z,86.28
2019-01-23T04:57:45.337Z,86.18
2019-01-23T04:58:45.328Z,86.28
2019-01-23T04:59:46.877Z,86.07
2019-01-23T05:00:45.312Z,85.64
2019-01-23T05:01:45.318Z,86.18
2019-01-23T05:02:45.281Z,86.60
2019-01-23T05:03:45.282Z,85.96
2019-01-23T05:04:45.276Z,86.71
2019-01-23T05:05:45.252Z,87.34
2019-01-23T05:06:45.243Z,86.03
2019-01-23T05:07:45.227Z,86.46
2019-01-23T05:08:45.252Z,85.93
2019-01-23T05:09:45.264Z,85.71
2019-01-23T05:10:45.198Z,86.28
2019-01-23T05:11:45.184Z,85.96
2019-01-23T05:12:45.175Z,86.66
2019-01-23T05:13:45.165Z,86.56
2019-01-23T05:14:45.170Z,86.28
2019-01-23T05:15:45.164Z,86.18
2019-01-23T05:16:45.139Z,85.75
2019-01-23T05:17:45.125Z,86.07
2019-01-23T05:18:45.113Z,85.64
2019-01-23T05:19:45.116Z,86.39
2019-01-23T05:20:45.106Z,86.28
2019-01-23T05:21:45.085Z,85.96
2019-01-23T05:22:45.072Z,86.07
2019-01-23T05:23:45.065Z,86.07
2019-01-23T05:24:45.078Z,86.03
2019-01-23T05:25:45.041Z,85.93
2019-01-23T05:26:45.032Z,85.96
2019-01-23T05:27:45.030Z,85.86
2019-01-23T05:28:45.015Z,86.07
2019-01-23T05:29:45.017Z,86.18
2019-01-23T05:30:44.991Z,86.56
2019-01-23T05:31:44.995Z,86.60
2019-01-23T05:32:44.972Z,85.93
2019-01-23T05:33:44.966Z,86.24
2019-01-23T05:34:44.957Z,86.24
2019-01-23T05:35:44.940Z,85.93
2019-01-23T05:36:44.931Z,85.93
2019-01-23T05:37:44.941Z,85.96
2019-01-23T05:38:44.923Z,86.39
2019-01-23T05:39:45.072Z,86.66
2019-01-23T05:40:44.900Z,86.24
2019-01-23T05:41:44.904Z,85.93
2019-01-23T05:42:44.871Z,85.93
2019-01-23T05:43:44.858Z,86.60
2019-01-23T05:44:44.853Z,86.28
2019-01-23T05:45:44.854Z,86.03
2019-01-23T05:46:44.839Z,85.93
2019-01-23T05:47:44.818Z,85.96
2019-01-23T05:48:44.810Z,86.60
2019-01-23T05:49:44.799Z,86.60
2019-01-23T05:50:44.800Z,85.93
2019-01-23T05:51:44.782Z,85.75
2019-01-23T05:52:44.792Z,85.75
2019-01-23T05:53:44.763Z,86.60
2019-01-23T05:54:44.747Z,86.71
2019-01-23T05:55:44.756Z,86.92
2019-01-23T05:56:44.735Z,86.28
2019-01-23T05:57:44.728Z,86.60
2019-01-23T05:58:44.728Z,86.60
2019-01-23T05:59:44.712Z,86.60
2019-01-23T06:00:44.705Z,86.28
2019-01-23T06:01:44.706Z,85.64
2019-01-23T06:02:44.688Z,86.14
2019-01-23T06:03:44.662Z,85.86
2019-01-23T06:04:44.662Z,85.86
2019-01-23T06:05:44.646Z,86.07
2019-01-23T06:06:44.645Z,85.86
2019-01-23T06:07:44.616Z,86.39
2019-01-23T06:08:44.610Z,86.07
2019-01-23T06:09:44.601Z,86.07
2019-01-23T06:10:44.626Z,86.07
2019-01-23T06:11:44.575Z,85.96
2019-01-23T06:12:44.570Z,85.86
2019-01-23T06:13:44.561Z,85.86
2019-01-23T06:14:44.554Z,86.32
2019-01-23T06:15:44.552Z,86.21
2019-01-23T06:16:44.535Z,86.00
2019-01-23T06:17:44.575Z,86.64
2019-01-23T06:18:44.509Z,86.43
2019-01-23T06:19:44.510Z,86.00
2019-01-23T06:20:44.505Z,86.54
2019-01-23T06:21:44.482Z,86.32
2019-01-23T06:22:44.472Z,86.00
2019-01-23T06:23:44.470Z,85.79
2019-01-23T06:24:44.455Z,86.43
2019-01-23T06:25:44.462Z,86.32
2019-01-23T06:26:44.426Z,86.00
2019-01-23T06:27:44.423Z,87.06
2019-01-23T06:28:44.413Z,87.38
2019-01-23T06:29:44.400Z,87.13
2019-01-23T06:30:44.404Z,86.07
2019-01-23T06:31:44.387Z,85.96
2019-01-23T06:32:44.378Z,86.07
2019-01-23T06:33:44.361Z,86.71
2019-01-23T06:34:44.346Z,85.96
2019-01-23T06:35:44.343Z,86.07
2019-01-23T06:36:44.351Z,86.49
2019-01-23T06:37:44.355Z,85.96
2019-01-23T06:38:44.308Z,87.13
2019-01-23T06:39:44.302Z,86.60
2019-01-23T06:40:44.333Z,86.39
2019-01-23T06:41:44.273Z,86.81
2019-01-23T06:42:44.266Z,86.28
2019-01-23T06:43:44.277Z,86.28
2019-01-23T06:44:44.254Z,86.28
2019-01-23T06:45:44.248Z,86.64
2019-01-23T06:46:44.224Z,86.32
2019-01-23T06:47:44.211Z,86.71
2019-01-23T06:48:44.196Z,86.71
2019-01-23T06:49:44.187Z,86.49
2019-01-23T06:50:44.187Z,87.13
2019-01-23T06:51:44.165Z,86.07
2019-01-23T06:52:44.158Z,87.02
2019-01-23T06:53:44.163Z,87.13
2019-01-23T06:54:44.136Z,86.39
2019-01-23T06:55:44.140Z,86.60
2019-01-23T06:56:44.134Z,86.03
2019-01-23T06:57:44.117Z,86.03
2019-01-23T06:58:44.105Z,86.14
2019-01-23T06:59:44.094Z,86.66
2019-01-23T07:00:44.093Z,86.24
2019-01-23T07:01:44.067Z,86.03
2019-01-23T07:02:44.058Z,85.93
2019-01-23T07:03:44.055Z,86.03
2019-01-23T07:04:44.037Z,85.93
2019-01-23T07:05:44.038Z,86.03
2019-01-23T07:06:44.018Z,86.56
2019-01-23T07:07:44.008Z,86.24
2019-01-23T07:08:43.997Z,86.56
2019-01-23T07:09:43.986Z,86.56
2019-01-23T07:10:43.985Z,86.28
2019-01-23T07:11:43.979Z,86.66
2019-01-23T07:12:43.953Z,86.88
2019-01-23T07:13:43.946Z,87.09
2019-01-23T07:14:43.936Z,86.14
2019-01-23T07:15:43.936Z,86.60
2019-01-23T07:16:43.931Z,86.81
2019-01-23T07:17:43.907Z,87.09
2019-01-23T07:18:43.898Z,86.56
2019-01-23T07:19:43.885Z,86.99
2019-01-23T07:20:43.887Z,86.77
2019-01-23T07:21:43.868Z,86.66
2019-01-23T07:22:43.854Z,87.19
2019-01-23T07:23:43.843Z,86.03
2019-01-23T07:24:43.840Z,85.93
2019-01-23T07:25:43.846Z,86.46
2019-01-23T07:26:43.812Z,86.99
2019-01-23T07:27:43.808Z,86.77
2019-01-23T07:28:49.210Z,87.09
2019-01-23T07:29:44.777Z,86.77
2019-01-23T07:30:43.786Z,86.88
2019-01-23T07:31:43.763Z,86.88
2019-01-23T07:32:43.918Z,87.09
2019-01-23T07:33:43.750Z,87.26
2019-01-23T07:34:43.752Z,87.48
2019-01-23T07:35:43.755Z,87.05
2019-01-23T07:36:43.730Z,86.10
2019-01-23T07:37:43.706Z,86.63
2019-01-23T07:38:43.694Z,87.01
2019-01-23T07:39:43.685Z,85.96
2019-01-23T07:40:43.716Z,86.48
2019-01-23T07:41:43.663Z,86.27
2019-01-23T07:42:43.653Z,86.27
2019-01-23T07:43:43.642Z,85.89
2019-01-23T07:44:43.631Z,86.48
2019-01-23T07:45:43.642Z,86.48
2019-01-23T07:46:43.629Z,87.12
2019-01-23T07:47:43.605Z,86.59
2019-01-23T07:48:43.590Z,86.02
2019-01-23T07:49:43.602Z,85.64
2019-01-23T07:50:43.568Z,85.91
2019-01-23T07:51:43.572Z,85.85
2019-01-23T07:52:43.554Z,85.91
2019-01-23T07:53:43.539Z,85.64
2019-01-23T07:54:43.590Z,85.96
2019-01-23T07:55:43.532Z,86.06
2019-01-23T07:56:43.522Z,86.16
2019-01-23T07:57:43.509Z,85.64
2019-01-23T07:58:43.487Z,85.64
2019-01-23T07:59:43.476Z,86.06
2019-01-23T08:00:43.464Z,86.06
2019-01-23T08:01:43.476Z,85.81
2019-01-23T08:02:43.444Z,85.74
2019-01-23T08:03:43.455Z,86.16
2019-01-23T08:04:43.426Z,86.06
2019-01-23T08:05:43.419Z,86.27
2019-01-23T08:06:43.430Z,86.13
2019-01-23T08:07:43.394Z,85.96
2019-01-23T08:08:43.380Z,86.06
2019-01-23T08:09:43.373Z,85.96
2019-01-23T08:10:43.361Z,85.74
2019-01-23T08:11:43.368Z,86.06
2019-01-23T08:12:43.340Z,85.96
2019-01-23T08:13:43.379Z,86.38
2019-01-23T08:14:43.320Z,85.85
2019-01-23T08:15:43.311Z,86.16
2019-01-23T08:16:43.312Z,86.44
2019-01-23T08:17:43.296Z,85.96
2019-01-23T08:18:43.285Z,86.02
2019-01-23T08:19:43.275Z,86.16
2019-01-23T08:20:43.257Z,85.91
2019-01-23T08:21:43.344Z,85.81
2019-01-23T08:22:43.237Z,85.60
2019-01-23T08:23:43.228Z,85.81
2019-01-23T08:24:43.216Z,85.49
2019-01-23T08:25:43.226Z,85.39
2019-01-23T08:26:43.207Z,85.17
2019-01-23T08:27:43.205Z,84.54
2019-01-23T08:28:43.177Z,84.64
2019-01-23T08:29:43.167Z,85.00
2019-01-23T08:30:43.156Z,85.28
2019-01-23T08:31:43.161Z,86.27
2019-01-23T08:32:43.149Z,85.81
2019-01-23T08:33:43.143Z,85.91
2019-01-23T08:34:43.113Z,85.49
2019-01-23T08:35:43.106Z,85.03
2019-01-23T08:36:43.115Z,85.60
2019-01-23T08:37:43.085Z,85.28
2019-01-23T08:38:43.075Z,85.39
2019-01-23T08:39:43.066Z,85.07
2019-01-23T08:40:43.057Z,85.17
2019-01-23T08:41:43.351Z,85.42
2019-01-23T08:42:43.035Z,85.49
2019-01-23T08:43:43.042Z,85.49
2019-01-23T08:44:43.016Z,85.07
2019-01-23T08:45:43.010Z,84.75
2019-01-23T08:46:43.005Z,84.44
2019-01-23T08:47:42.983Z,84.12
2019-01-23T08:48:42.979Z,84.44
2019-01-23T08:49:42.972Z,84.96
2019-01-23T08:50:42.959Z,84.92
2019-01-23T08:51:42.963Z,84.96
2019-01-23T08:52:42.935Z,84.75
2019-01-23T08:53:42.923Z,85.07
2019-01-23T08:54:42.911Z,85.17
2019-01-23T08:55:42.913Z,84.75
2019-01-23T08:56:42.904Z,84.82
2019-01-23T08:57:42.883Z,84.82
2019-01-23T08:58:42.924Z,84.08
2019-01-23T08:59:42.861Z,84.29
2019-01-23T09:00:45.951Z,83.55
2019-01-23T09:01:42.856Z,84.19
2019-01-23T09:02:42.831Z,84.50
2019-01-23T09:03:42.818Z,84.89
2019-01-23T09:04:42.810Z,83.94
2019-01-23T09:05:42.798Z,84.08
2019-01-23T09:06:42.798Z,84.29
2019-01-23T09:07:42.791Z,84.29
2019-01-23T09:08:42.767Z,84.29
2019-01-23T09:09:42.758Z,84.71
2019-01-23T09:10:42.751Z,83.97
2019-01-23T09:11:42.752Z,83.72
2019-01-23T09:12:42.730Z,84.04
2019-01-23T09:13:42.719Z,83.83
2019-01-23T09:14:42.707Z,84.04
2019-01-23T09:15:42.698Z,84.25
2019-01-23T09:16:42.700Z,84.46
2019-01-23T09:17:42.678Z,84.11
2019-01-23T09:18:42.666Z,84.11
2019-01-23T09:19:42.659Z,84.22
2019-01-23T09:20:42.656Z,83.47
2019-01-23T09:21:42.651Z,83.69
2019-01-23T09:22:42.624Z,82.95
2019-01-23T09:23:42.624Z,82.53
2019-01-23T09:24:42.619Z,82.80
2019-01-23T09:25:42.598Z,83.12
2019-01-23T09:26:42.605Z,83.01
2019-01-23T09:27:42.576Z,82.98
2019-01-23T09:28:42.567Z,82.56
2019-01-23T09:29:42.566Z,82.20
2019-01-23T09:30:42.549Z,81.35
2019-01-23T09:31:42.549Z,81.18
2019-01-23T09:32:42.532Z,81.04
2019-01-23T09:33:42.557Z,81.57
2019-01-23T09:34:42.508Z,82.09
2019-01-23T09:35:42.495Z,81.67
2019-01-23T09:36:42.497Z,81.46
2019-01-23T09:37:42.490Z,80.93
2019-01-23T09:38:42.467Z,80.93
2019-01-23T09:39:42.454Z,81.67
2019-01-23T09:40:42.441Z,81.04
2019-01-23T09:41:42.447Z,80.62
2019-01-23T09:42:42.430Z,80.69
2019-01-23T09:43:42.438Z,80.69
2019-01-23T09:44:42.409Z,79.95
2019-01-23T09:45:42.391Z,80.79
2019-01-23T09:46:42.426Z,80.69
2019-01-23T09:47:42.373Z,80.62
2019-01-23T09:48:42.367Z,81.35
2019-01-23T09:49:42.353Z,80.62
2019-01-23T09:50:42.342Z,80.41
2019-01-23T09:51:42.331Z,79.56
2019-01-23T09:52:42.331Z,80.41
2019-01-23T09:53:42.349Z,80.62
2019-01-23T09:54:42.303Z,81.11
2019-01-23T09:55:42.291Z,80.16
2019-01-23T09:56:42.278Z,80.05
2019-01-23T09:57:42.278Z,79.60
2019-01-23T09:58:42.258Z,78.64
2019-01-23T09:59:42.249Z,78.50
2019-01-23T10:00:42.240Z,78.47
2019-01-23T10:01:42.232Z,78.26
2019-01-23T10:02:42.235Z,78.05
2019-01-23T10:03:42.210Z,77.63
2019-01-23T10:04:42.204Z,78.26
2019-01-23T10:05:42.186Z,77.52
2019-01-23T10:06:42.180Z,77.73
2019-01-23T10:07:42.182Z,77.73
2019-01-23T10:08:42.156Z,78.26
2019-01-23T10:09:42.149Z,77.73
2019-01-23T10:10:42.140Z,77.73
2019-01-23T10:11:42.124Z,78.30
2019-01-23T10:12:42.166Z,78.47
2019-01-23T10:13:42.108Z,78.19
2019-01-23T10:14:42.100Z,78.08
2019-01-23T10:15:42.085Z,77.87
2019-01-23T10:16:42.073Z,78.30
2019-01-23T10:17:42.063Z,78.08
2019-01-23T10:18:42.069Z,77.87
2019-01-23T10:19:42.043Z,77.77
2019-01-23T10:20:42.034Z,77.56
2019-01-23T10:21:42.022Z,77.98
2019-01-23T10:22:42.011Z,77.56
2019-01-23T10:23:42.071Z,78.08
2019-01-23T10:24:42.012Z,78.08
2019-01-23T10:25:41.985Z,78.19
2019-01-23T10:26:41.974Z,77.73
2019-01-23T10:27:41.983Z,77.20
2019-01-23T10:28:41.961Z,77.20
2019-01-23T10:29:41.948Z,76.29
2019-01-23T10:30:41.929Z,76.89
2019-01-23T10:31:41.938Z,76.50
2019-01-23T10:32:41.908Z,75.84
2019-01-23T10:33:41.907Z,75.66
2019-01-23T10:34:41.889Z,75.76
2019-01-23T10:35:41.908Z,75.87
2019-01-23T10:36:41.867Z,75.56
2019-01-23T10:37:41.862Z,75.63
2019-01-23T10:38:41.866Z,75.42
2019-01-23T10:39:41.839Z,75.66
2019-01-23T10:40:41.830Z,75.63
2019-01-23T10:41:41.815Z,75.84
2019-01-23T10:42:41.808Z,76.65
2019-01-23T10:43:41.811Z,75.81
2019-01-23T10:44:41.783Z,75.81
2019-01-23T10:45:41.779Z,75.38
2019-01-23T10:46:41.761Z,75.27
2019-01-23T10:47:41.755Z,75.73
2019-01-23T10:48:41.753Z,76.36
2019-01-23T10:49:41.751Z,76.47
2019-01-23T10:50:41.719Z,76.57
2019-01-23T10:51:41.713Z,76.50
2019-01-23T10:52:41.705Z,76.54
2019-01-23T10:53:41.701Z,76.89
2019-01-23T10:54:41.687Z,77.20
2019-01-23T10:55:41.681Z,77.73
2019-01-23T10:56:41.666Z,78.36
2019-01-23T10:57:41.648Z,78.22
2019-01-23T10:58:41.663Z,77.06
2019-01-23T10:59:41.627Z,76.89
2019-01-23T11:00:41.618Z,76.96
2019-01-23T11:01:41.617Z,76.43
2019-01-23T11:02:41.600Z,76.12
2019-01-23T11:03:41.586Z,76.32
2019-01-23T11:04:41.726Z,76.22
2019-01-23T11:05:41.579Z,76.43
2019-01-23T11:06:41.556Z,76.01
2019-01-23T11:07:41.553Z,75.38
2019-01-23T11:08:41.597Z,76.12
2019-01-23T11:09:41.557Z,76.26
2019-01-23T11:10:41.520Z,77.00
2019-01-23T11:11:41.533Z,76.68
2019-01-23T11:12:41.499Z,77.03
2019-01-23T11:13:41.502Z,77.80
2019-01-23T11:14:41.578Z,77.91
2019-01-23T11:15:41.504Z,77.98
2019-01-23T11:16:41.464Z,77.91
2019-01-23T11:17:41.458Z,77.80
2019-01-23T11:18:41.453Z,77.80
2019-01-23T11:19:41.443Z,78.22
2019-01-23T11:20:41.413Z,78.37
2019-01-23T11:21:41.402Z,78.58
2019-01-23T11:22:44.318Z,78.58
2019-01-23T11:23:41.387Z,78.58
2019-01-23T11:24:44.953Z,78.44
2019-01-23T11:25:41.398Z,78.12
2019-01-23T11:26:41.361Z,77.94
2019-01-23T11:27:41.355Z,78.54
2019-01-23T11:28:41.339Z,77.91
2019-01-23T11:29:41.341Z,77.91
2019-01-23T11:30:41.318Z,78.33
2019-01-23T11:31:41.306Z,78.02
2019-01-23T11:32:41.296Z,78.02
2019-01-23T11:33:41.282Z,77.80
2019-01-23T11:34:41.283Z,77.80
2019-01-23T11:35:41.263Z,78.22
2019-01-23T11:36:41.249Z,78.86
2019-01-23T11:37:41.240Z,78.33
2019-01-23T11:38:41.230Z,78.44
2019-01-23T11:39:41.234Z,78.44
2019-01-23T11:40:41.210Z,77.80
2019-01-23T11:41:41.209Z,77.80
2019-01-23T11:42:41.188Z,78.89
2019-01-23T11:43:41.215Z,79.28
2019-01-23T11:44:41.229Z,79.77
2019-01-23T11:45:41.158Z,79.03
2019-01-23T11:46:41.150Z,78.30
2019-01-23T11:47:41.138Z,77.77
2019-01-23T11:48:41.135Z,77.66
2019-01-23T11:49:41.134Z,77.66
2019-01-23T11:50:41.109Z,78.05
2019-01-23T11:51:41.099Z,77.31
2019-01-23T11:52:41.123Z,76.82
2019-01-23T11:53:41.076Z,76.72
2019-01-23T11:54:41.080Z,77.45
2019-01-23T11:55:41.078Z,77.45
2019-01-23T11:56:41.046Z,78.02
2019-01-23T11:57:41.142Z,77.80
2019-01-23T11:58:41.032Z,78.12
2019-01-23T11:59:41.033Z,78.44
2019-01-23T12:00:41.006Z,78.33
2019-01-23T12:01:41.017Z,78.02
2019-01-23T12:02:40.986Z,77.80
2019-01-23T12:03:40.974Z,77.77
2019-01-23T12:04:41.000Z,78.30
2019-01-23T12:05:40.961Z,78.19
2019-01-23T12:06:40.946Z,77.56
2019-01-23T12:07:40.955Z,77.14
2019-01-23T12:08:40.922Z,77.42
2019-01-23T12:09:40.926Z,77.31
2019-01-23T12:10:40.910Z,77.45
2019-01-23T12:11:40.903Z,76.89
2019-01-23T12:12:40.890Z,76.61
2019-01-23T12:13:40.896Z,77.20
2019-01-23T12:14:40.889Z,77.98
2019-01-23T12:15:41.185Z,77.73
2019-01-23T12:16:40.852Z,77.84
2019-01-23T12:17:40.847Z,77.31
2019-01-23T12:18:40.828Z,77.31
2019-01-23T12:19:40.842Z,76.92
2019-01-23T12:20:40.803Z,77.24
2019-01-23T12:21:40.799Z,77.70
2019-01-23T12:22:40.784Z,77.91
2019-01-23T12:23:40.771Z,78.33
2019-01-23T12:24:40.759Z,78.44
2019-01-23T12:25:40.783Z,78.65
2019-01-23T12:26:40.737Z,78.40
2019-01-23T12:27:40.728Z,78.72
2019-01-23T12:28:40.718Z,78.82
2019-01-23T12:29:40.719Z,78.19
2019-01-23T12:30:40.722Z,79.14
2019-01-23T12:31:40.687Z,77.87
2019-01-23T12:32:40.677Z,77.87
2019-01-23T12:33:40.668Z,77.87
2019-01-23T12:34:40.658Z,77.66
2019-01-23T12:35:40.659Z,78.19
2019-01-23T12:36:40.640Z,77.66
2019-01-23T12:37:40.631Z,78.12
2019-01-23T12:38:40.620Z,77.70
2019-01-23T12:39:40.613Z,78.22
2019-01-23T12:40:40.614Z,78.97
2019-01-23T12:41:40.588Z,78.61
2019-01-23T12:42:40.579Z,78.93
2019-01-23T12:43:40.568Z,78.19
2019-01-23T12:44:40.560Z,77.77
2019-01-23T12:45:40.593Z,78.02
2019-01-23T12:46:40.538Z,78.33
2019-01-23T12:47:40.530Z,77.80
2019-01-23T12:48:40.519Z,77.70
2019-01-23T12:49:40.504Z,78.37
2019-01-23T12:50:40.544Z,77.84
2019-01-23T12:51:40.500Z,78.47
2019-01-23T12:52:40.476Z,78.68